Time;durP1;ratioP1;P1;durP2;ratioP2;P2;SDS_P1;SDS_P2;PMS_P1;PMS_P2;Temp;Humidity;BMP_temperature;BMP_pressure;BME280_temperature;BME280_humidity;BME280_pressure;Samples;Min_cycle;Max_cycle;Signal;HPM_P1;HPM_P2
2021/11/30 00:01:58;;;;;;;36.92;18.23;;;;;;;-0.06;100.00;98492.91;4885934;29;20320;-77
2021/11/30 00:04:42;;;;;;;34.42;17.58;;;;;;;-0.12;100.00;98485.22;4885713;29;20124;-77
2021/11/30 00:07:26;;;;;;;25.77;12.63;;;;;;;-0.09;100.00;98485.19;4885729;29;20461;-77
2021/11/30 00:12:54;;;;;;;40.35;22.88;;;;;;;-0.18;100.00;98490.38;4885482;29;20049;-77
2021/11/30 00:15:40;;;;;;;31.95;16.35;;;;;;;-0.15;100.00;98492.09;4884554;29;20371;-77
2021/11/30 00:18:25;;;;;;;24.27;12.45;;;;;;;-0.14;100.00;98492.06;4885481;29;20056;-77
2021/11/30 00:21:12;;;;;;;19.10;10.73;;;;;;;-0.11;100.00;98501.50;4884627;29;20201;-77
2021/11/30 00:23:56;;;;;;;19.35;11.10;;;;;;;-0.18;100.00;98507.53;4884765;29;20056;-77
2021/11/30 00:26:40;;;;;;;18.58;11.15;;;;;;;-0.15;100.00;98490.38;4871547;29;20060;-77
2021/11/30 00:29:25;;;;;;;21.88;14.23;;;;;;;-0.18;100.00;98510.09;4885529;29;20113;-77
2021/11/30 00:32:10;;;;;;;30.38;19.27;;;;;;;-0.12;100.00;98517.81;4884446;29;20128;-77
2021/11/30 00:34:55;;;;;;;32.42;16.45;;;;;;;-0.09;100.00;98510.09;4885098;29;20446;-77
2021/11/30 00:37:39;;;;;;;21.92;12.23;;;;;;;-0.13;100.00;98527.25;4897554;29;20056;-77
2021/11/30 00:40:24;;;;;;;20.33;10.95;;;;;;;-0.11;100.00;98522.09;4897539;29;20049;-78
2021/11/30 00:43:09;;;;;;;16.77;11.20;;;;;;;-0.16;100.00;98528.97;4897666;29;20328;-77
2021/11/30 00:45:57;;;;;;;16.67;10.20;;;;;;;-0.18;100.00;98533.28;4884259;29;20045;-78
2021/11/30 00:48:42;;;;;;;18.10;10.55;;;;;;;-0.15;100.00;98536.69;4884865;29;20088;-78
2021/11/30 00:51:27;;;;;;;17.67;10.48;;;;;;;-0.10;100.00;98540.13;4897465;29;20052;-77
2021/11/30 00:54:12;;;;;;;25.27;15.10;;;;;;;-0.14;100.00;98540.97;4897308;29;20048;-78
2021/11/30 00:56:58;;;;;;;31.67;17.05;;;;;;;-0.10;100.00;98542.69;4897111;29;20045;-77
2021/11/30 00:59:42;;;;;;;19.23;12.15;;;;;;;-0.04;100.00;98545.22;4897259;29;20045;-77
2021/11/30 01:02:27;;;;;;;21.40;11.80;;;;;;;-0.07;100.00;98540.09;4884728;29;20045;-78
2021/11/30 01:05:13;;;;;;;17.95;9.75;;;;;;;-0.08;100.00;98548.69;4884653;29;20115;-78
2021/11/30 01:07:57;;;;;;;16.10;9.93;;;;;;;-0.17;100.00;98543.53;4883935;29;20119;-77
2021/11/30 01:10:41;;;;;;;20.50;11.50;;;;;;;-0.18;100.00;98548.72;4884087;29;20049;-77
2021/11/30 01:13:29;;;;;;;14.57;9.27;;;;;;;-0.12;100.00;98549.56;4897025;29;20049;-77
2021/11/30 01:16:14;;;;;;;17.25;10.77;;;;;;;-0.10;100.00;98544.38;4870157;29;20458;-77
2021/11/30 01:19:00;;;;;;;14.65;9.55;;;;;;;-0.09;100.00;98539.25;4884365;29;20137;-78
2021/11/30 01:21:44;;;;;;;15.75;9.60;;;;;;;-0.11;100.00;98546.13;4883590;29;20078;-77
2021/11/30 01:24:29;;;;;;;13.02;8.02;;;;;;;-0.13;100.00;98542.72;4884266;29;20049;-78
2021/11/30 01:27:14;;;;;;;12.95;8.30;;;;;;;-0.13;100.00;98547.84;4883502;29;20125;-77
2021/11/30 01:29:59;;;;;;;11.57;8.15;;;;;;;-0.14;100.00;98550.41;4883364;29;20068;-77
2021/11/30 01:32:45;;;;;;;12.35;7.95;;;;;;;-0.13;100.00;98553.00;4870299;29;20067;-77
2021/11/30 01:35:29;;;;;;;11.60;7.30;;;;;;;-0.16;100.00;98553.00;4896387;29;20380;-77
2021/11/30 01:38:14;;;;;;;26.95;17.23;;;;;;;-0.20;100.00;98555.56;4883227;29;20513;-77
2021/11/30 01:41:01;;;;;;;25.30;13.93;;;;;;;-0.16;100.00;98558.16;4896475;29;20041;-77
2021/11/30 01:43:45;;;;;;;16.30;9.43;;;;;;;-0.19;100.00;98563.31;4884213;29;20045;-77
2021/11/30 01:49:34;;;;;;;14.15;8.90;;;;;;;-0.14;100.00;98553.84;4883319;29;20113;-77
2021/11/30 01:52:19;;;;;;;15.93;8.60;;;;;;;-0.13;100.00;98568.44;4883556;29;20105;-77
2021/11/30 01:55:04;;;;;;;16.20;10.27;;;;;;;-0.25;100.00;98553.88;4883337;29;20049;-77
2021/11/30 01:57:52;;;;;;;14.27;8.07;;;;;;;-0.20;100.00;98551.28;4884134;29;20431;-77
2021/11/30 02:00:38;;;;;;;11.52;7.53;;;;;;;-0.26;100.00;98557.31;4883551;29;20069;-77
2021/11/30 02:03:22;;;;;;;10.85;7.03;;;;;;;-0.27;100.00;98559.88;4883408;29;20052;-77
2021/11/30 02:06:07;;;;;;;10.38;6.13;;;;;;;-0.28;100.00;98568.47;4883895;29;20067;-77
2021/11/30 02:08:51;;;;;;;8.88;6.25;;;;;;;-0.24;100.00;98558.16;4895989;29;20396;-77
2021/11/30 02:11:35;;;;;;;9.52;6.75;;;;;;;-0.26;100.00;98571.88;4882986;29;20104;-76
2021/11/30 02:14:20;;;;;;;8.07;5.38;;;;;;;-0.24;100.00;98570.16;4882926;29;20049;-79
2021/11/30 02:17:07;;;;;;;8.07;5.72;;;;;;;-0.21;100.00;98570.16;4883312;29;20152;-77
2021/11/30 02:19:55;;;;;;;9.88;5.90;;;;;;;-0.27;100.00;98570.16;4884635;29;20430;-79
2021/11/30 02:22:39;;;;;;;5.35;4.35;;;;;;;-0.30;100.00;98571.03;4883967;29;20427;-79
2021/11/30 02:25:24;;;;;;;5.32;4.25;;;;;;;-0.38;100.00;98580.47;4884003;29;20049;-79
2021/11/30 02:28:08;;;;;;;8.75;5.97;;;;;;;-0.31;100.00;98581.31;4883877;29;20057;-79
2021/11/30 02:30:53;;;;;;;8.55;4.93;;;;;;;-0.38;100.00;98582.19;4884122;29;20336;-79
2021/11/30 02:33:38;;;;;;;5.47;3.65;;;;;;;-0.34;100.00;98578.75;4883418;29;20045;-79
2021/11/30 02:37:04;;;;;;;6.65;4.32;;;;;;;-0.30;100.00;98578.75;4884050;29;20506;-77
2021/11/30 02:39:40;;;;;;;19.85;7.47;;;;;;;-0.36;100.00;98583.03;4883889;29;20037;-79
2021/11/30 02:42:24;;;;;;;7.40;4.55;;;;;;;-0.32;100.00;98584.78;4883258;29;20462;-79
2021/11/30 02:45:09;;;;;;;5.45;3.88;;;;;;;-0.31;100.00;98578.75;4883255;29;20049;-79
2021/11/30 02:47:53;;;;;;;5.70;4.15;;;;;;;-0.33;100.00;98595.91;4883191;29;20049;-76
2021/11/30 02:50:41;;;;;;;7.10;3.65;;;;;;;-0.39;100.00;98598.47;4883992;29;20048;-79
2021/11/30 02:53:25;;;;;;;5.72;3.92;;;;;;;-0.42;100.00;98593.31;4883969;29;20053;-79
2021/11/30 02:56:09;;;;;;;4.93;3.22;;;;;;;-0.49;100.00;98592.47;4883390;29;20044;-79
2021/11/30 02:58:55;;;;;;;4.72;3.72;;;;;;;-0.42;100.00;98601.94;4882918;29;20037;-79
2021/11/30 03:01:50;;;;;;;4.40;3.60;;;;;;;-0.47;100.00;98599.34;4883614;29;20123;-79
2021/11/30 03:04:34;;;;;;;6.07;3.90;;;;;;;-0.55;100.00;98597.66;4882717;29;20053;-79
2021/11/30 03:07:22;;;;;;;5.53;3.63;;;;;;;-0.50;100.00;98599.34;4883359;29;20049;-79
2021/11/30 03:10:25;;;;;;;5.35;3.10;;;;;;;-0.55;100.00;98611.34;4882465;29;20057;-79
2021/11/30 03:13:09;;;;;;;3.95;3.28;;;;;;;-0.58;100.00;98608.78;4883283;29;20411;-79
2021/11/30 03:15:56;;;;;;;5.97;3.10;;;;;;;-0.54;100.00;98596.78;4883159;29;20045;-79
2021/11/30 03:18:40;;;;;;;4.47;3.80;;;;;;;-0.62;100.00;98598.47;4883105;29;20045;-78
2021/11/30 03:21:25;;;;;;;4.43;3.53;;;;;;;-0.53;100.00;98591.63;4883398;29;20053;-78
2021/11/30 03:24:10;;;;;;;4.60;3.03;;;;;;;-0.60;100.00;98589.06;4883155;29;20044;-78
2021/11/30 03:26:55;;;;;;;4.80;3.08;;;;;;;-0.58;100.00;98590.78;4883271;29;20057;-78
2021/11/30 03:29:39;;;;;;;3.80;3.05;;;;;;;-0.54;100.00;98589.06;4882813;29;20045;-78
2021/11/30 03:35:17;;;;;;;6.43;4.07;;;;;;;-0.61;100.00;98579.63;4882187;29;20057;-78
2021/11/30 03:38:01;;;;;;;5.45;3.40;;;;;;;-0.63;100.00;98571.03;4882642;29;20442;-78
2021/11/30 03:40:46;;;;;;;5.30;4.10;;;;;;;-0.76;100.00;98572.75;4883065;29;20136;-78
2021/11/30 03:43:31;;;;;;;3.65;2.60;;;;;;;-0.74;100.00;98574.47;4882049;29;20041;-78
2021/11/30 03:46:16;;;;;;;5.57;3.15;;;;;;;-0.89;100.00;98582.16;4881504;29;20053;-78
2021/11/30 03:49:03;;;;;;;6.50;3.10;;;;;;;-0.85;100.00;98595.88;4881282;29;20045;-78
2021/11/30 03:51:48;;;;;;;6.53;3.40;;;;;;;-0.90;100.00;98598.47;4882199;29;20045;-78
2021/11/30 03:54:32;;;;;;;5.95;3.38;;;;;;;-0.91;100.00;98583.91;4894737;29;20045;-78
2021/11/30 03:57:16;;;;;;;5.88;3.47;;;;;;;-0.91;100.00;98586.47;4881934;29;20041;-78
2021/11/30 04:00:07;;;;;;;4.15;2.85;;;;;;;-0.96;100.00;98588.16;4882029;29;20045;-78
2021/11/30 04:02:51;;;;;;;5.15;2.95;;;;;;;-0.98;100.00;98585.56;4881379;29;20493;-78
2021/11/30 04:05:36;;;;;;;5.47;3.92;;;;;;;-0.96;100.00;98583.03;4881342;29;20435;-78
2021/11/30 04:08:20;;;;;;;7.45;3.38;;;;;;;-1.00;100.00;98587.31;4881336;29;20549;-78
2021/11/30 04:11:06;;;;;;;9.60;5.10;;;;;;;-0.96;100.00;98578.72;4881896;29;20068;-78
2021/11/30 04:13:50;;;;;;;6.40;4.22;;;;;;;-0.99;100.00;98583.00;4881900;29;20041;-78
2021/11/30 04:16:35;;;;;;;9.25;5.57;;;;;;;-1.03;100.00;98577.00;4881751;29;20367;-78
2021/11/30 04:19:19;;;;;;;13.07;7.60;;;;;;;-0.98;100.00;98574.44;4882081;29;20049;-78
2021/11/30 04:22:04;;;;;;;23.70;12.80;;;;;;;-1.01;100.00;98564.16;4882122;29;20053;-79
2021/11/30 04:24:48;;;;;;;8.65;5.35;;;;;;;-1.02;100.00;98554.72;4894401;29;20045;-78
2021/11/30 04:27:32;;;;;;;5.85;3.63;;;;;;;-1.02;100.00;98559.88;4881958;29;20445;-79
2021/11/30 04:30:16;;;;;;;4.40;3.05;;;;;;;-1.04;100.00;98554.75;4894989;29;20058;-78
2021/11/30 04:33:00;;;;;;;5.03;3.65;;;;;;;-1.02;100.00;98550.44;4884819;29;20100;-78
2021/11/30 04:35:44;;;;;;;7.00;4.28;;;;;;;-1.02;100.00;98552.16;4884603;29;20069;-78
2021/11/30 04:38:29;;;;;;;5.18;3.13;;;;;;;-1.11;100.00;98549.56;4885395;29;20430;-78
2021/11/30 04:41:13;;;;;;;4.53;3.13;;;;;;;-1.12;100.00;98547.88;4884435;29;20077;-78
2021/11/30 04:43:57;;;;;;;5.43;4.25;;;;;;;-1.14;100.00;98554.72;4897879;29;20049;-78
2021/11/30 04:47:09;;;;;;;8.02;5.25;;;;;;;-1.28;100.00;98557.25;4884343;29;20109;-78
2021/11/30 04:49:58;;;;;;;6.82;4.65;;;;;;;-1.27;100.00;98556.38;4885004;29;20061;-78
2021/11/30 04:52:45;;;;;;;10.45;6.43;;;;;;;-1.29;100.00;98560.69;4884517;29;20181;-78
2021/11/30 04:55:30;;;;;;;7.05;4.10;;;;;;;-1.26;100.00;98547.84;4897460;29;20045;-78
2021/11/30 04:58:14;;;;;;;11.38;5.75;;;;;;;-1.30;100.00;98561.50;4870865;29;20068;-78
2021/11/30 05:00:59;;;;;;;13.30;6.70;;;;;;;-1.36;100.00;98548.69;4897305;29;20044;-78
2021/11/30 05:03:43;;;;;;;16.00;8.50;;;;;;;-1.37;100.00;98544.38;4884236;29;20127;-78
2021/11/30 05:06:28;;;;;;;9.20;6.25;;;;;;;-1.30;100.00;98551.25;4883839;29;20469;-78
2021/11/30 05:09:12;;;;;;;7.68;5.18;;;;;;;-1.25;100.00;98558.13;4883792;29;20112;-78
2021/11/30 05:11:57;;;;;;;9.25;6.05;;;;;;;-1.21;100.00;98552.13;4883853;29;20063;-79
2021/11/30 05:14:41;;;;;;;10.88;5.78;;;;;;;-1.30;100.00;98530.69;4884097;29;20045;-78
2021/11/30 05:17:25;;;;;;;9.52;5.45;;;;;;;-1.15;100.00;98553.84;4884523;29;20041;-78
2021/11/30 05:20:11;;;;;;;8.73;5.00;;;;;;;-1.10;100.00;98548.75;4884392;29;20049;-78
2021/11/30 05:22:55;;;;;;;8.35;4.95;;;;;;;-1.18;100.00;98552.13;4884295;29;20045;-79
2021/11/30 05:25:41;;;;;;;9.52;5.30;;;;;;;-1.15;100.00;98548.72;4884283;29;20049;-78
2021/11/30 05:28:27;;;;;;;14.27;6.57;;;;;;;-1.13;100.00;98533.31;4896754;29;20057;-78
2021/11/30 05:31:10;;;;;;;12.40;6.55;;;;;;;-1.19;100.00;98531.59;4883513;29;20454;-78
2021/11/30 05:33:56;;;;;;;9.52;5.60;;;;;;;-1.14;100.00;98536.72;4896573;29;20052;-78
2021/11/30 05:36:40;;;;;;;12.48;6.55;;;;;;;-1.08;100.00;98529.88;4884191;29;20422;-79
2021/11/30 05:39:24;;;;;;;10.50;6.00;;;;;;;-1.10;100.00;98523.91;4884614;29;20049;-78
2021/11/30 05:42:08;;;;;;;9.65;5.30;;;;;;;-1.03;100.00;98525.59;4882606;29;20116;-78
2021/11/30 05:44:53;;;;;;;10.82;5.88;;;;;;;-1.04;100.00;98528.16;4883898;29;20045;-78
2021/11/30 05:47:36;;;;;;;10.30;5.35;;;;;;;-1.07;100.00;98511.03;4883994;29;20045;-78
2021/11/30 05:50:21;;;;;;;7.80;5.53;;;;;;;-0.97;100.00;98523.03;4883322;29;20069;-79
2021/11/30 05:53:06;;;;;;;9.73;6.13;;;;;;;-1.02;100.00;98521.31;4896596;29;20048;-78
2021/11/30 05:55:57;;;;;;;12.63;6.95;;;;;;;-1.05;100.00;98517.03;4883191;29;20053;-79
2021/11/30 05:58:44;;;;;;;15.13;7.72;;;;;;;-1.02;100.00;98511.88;4884035;29;20048;-79
2021/11/30 06:01:31;;;;;;;15.20;8.07;;;;;;;-1.04;100.00;98508.47;4883540;29;20044;-78
2021/11/30 06:04:15;;;;;;;15.25;7.97;;;;;;;-1.05;100.00;98501.59;4883923;29;20045;-79
2021/11/30 06:06:59;;;;;;;14.35;8.27;;;;;;;-1.10;100.00;98498.19;4883990;29;20053;-79
2021/11/30 06:09:44;;;;;;;13.60;7.82;;;;;;;-1.07;100.00;98490.50;4885161;29;20041;-78
2021/11/30 06:12:28;;;;;;;13.13;8.35;;;;;;;-1.10;100.00;98494.78;4881627;29;20042;-77
2021/11/30 06:15:12;;;;;;;15.32;9.02;;;;;;;-1.18;100.00;98485.31;4882802;29;20507;-81
2021/11/30 06:17:58;;;;;;;14.57;9.10;;;;;;;-1.11;100.00;98491.31;4881894;29;20423;-81
2021/11/30 06:20:42;;;;;;;16.02;9.88;;;;;;;-1.07;100.00;98484.47;4894763;29;20398;-81
2021/11/30 06:23:26;;;;;;;20.88;10.38;;;;;;;-1.03;100.00;98484.47;4881619;29;20551;-81
2021/11/30 06:26:11;;;;;;;21.48;11.48;;;;;;;-0.99;100.00;98481.03;4894699;29;20057;-81
2021/11/30 06:28:56;;;;;;;14.95;9.52;;;;;;;-0.96;100.00;98486.19;4881203;29;20049;-81
2021/11/30 06:31:40;;;;;;;14.45;9.57;;;;;;;-1.00;100.00;98475.91;4881470;29;20124;-81
2021/11/30 06:34:24;;;;;;;13.32;9.23;;;;;;;-0.94;100.00;98478.50;4881022;29;20129;-81
2021/11/30 06:37:09;;;;;;;13.13;9.27;;;;;;;-0.88;100.00;98477.63;4893839;29;20361;-81
2021/11/30 06:39:54;;;;;;;14.02;9.30;;;;;;;-0.86;100.00;98479.34;4894247;29;20052;-81
2021/11/30 06:42:40;;;;;;;14.48;9.85;;;;;;;-0.83;100.00;98466.47;4893862;29;20049;-81
2021/11/30 06:45:26;;;;;;;14.40;9.95;;;;;;;-0.83;100.00;98468.19;4881985;29;20128;-79
2021/11/30 06:48:11;;;;;;;17.08;11.57;;;;;;;-0.86;100.00;98466.47;4880866;29;20052;-79
2021/11/30 06:50:55;;;;;;;24.30;15.18;;;;;;;-0.78;100.00;98471.59;4879942;29;20093;-79
2021/11/30 06:53:39;;;;;;;20.15;12.18;;;;;;;-0.80;100.00;98452.78;4881036;29;20104;-79
2021/11/30 06:56:24;;;;;;;20.30;12.10;;;;;;;-0.81;100.00;98440.78;4880865;29;20411;-79
2021/11/30 06:59:08;;;;;;;22.05;12.80;;;;;;;-0.64;100.00;98467.31;4881078;29;20124;-79
2021/11/30 07:01:53;;;;;;;16.80;10.95;;;;;;;-0.54;100.00;98458.72;4882051;29;20052;-79
2021/11/30 07:04:46;;;;;;;18.20;11.63;;;;;;;-0.57;100.00;98457.88;4895610;29;20362;-79
2021/11/30 07:07:47;;;;;;;;;;;;;;;-0.63;100.00;98452.75;4882201;29;20060;-79
2021/11/30 07:13:32;;;;;;;21.98;14.38;;;;;;;-0.52;100.00;98449.31;4882562;29;20045;-79
2021/11/30 07:16:16;;;;;;;24.27;13.73;;;;;;;-0.49;100.00;98451.88;4881272;29;20370;-79
2021/11/30 07:19:01;;;;;;;20.45;14.00;;;;;;;-0.45;100.00;98442.41;4893479;29;20344;-79
2021/11/30 07:21:45;;;;;;;24.02;13.68;;;;;;;-0.39;100.00;98437.25;4880419;29;20228;-79
2021/11/30 07:24:30;;;;;;;18.45;13.00;;;;;;;-0.46;100.00;98425.25;4880399;29;20052;-79
2021/11/30 07:27:14;;;;;;;41.45;23.00;;;;;;;-0.51;100.00;98422.69;4893880;29;20053;-79
2021/11/30 07:29:58;;;;;;;28.10;19.98;;;;;;;-0.54;100.00;98427.84;4882337;29;20359;-79
2021/11/30 07:32:42;;;;;;;19.23;13.23;;;;;;;-0.76;100.00;98388.47;4894731;29;20442;-79
2021/11/30 07:35:28;;;;;;;21.45;14.20;;;;;;;-0.53;100.00;98419.28;4882914;29;20104;-79
2021/11/30 07:38:12;;;;;;;18.50;12.60;;;;;;;-0.47;100.00;98408.97;4894975;29;20049;-79
2021/11/30 07:40:57;;;;;;;21.25;13.82;;;;;;;-0.50;100.00;98383.25;4882277;29;20097;-79
2021/11/30 07:43:41;;;;;;;25.00;16.60;;;;;;;-0.45;100.00;98402.97;4883187;29;20503;-79
2021/11/30 07:46:26;;;;;;;24.55;15.15;;;;;;;-0.33;100.00;98398.63;4882833;29;20351;-79
2021/11/30 07:49:12;;;;;;;27.77;15.40;;;;;;;-0.34;100.00;98378.91;4882971;29;20376;-80
2021/11/30 07:51:56;;;;;;;61.60;22.63;;;;;;;-0.17;100.00;98383.13;4882431;29;20439;-79
2021/11/30 07:54:40;;;;;;;52.85;22.75;;;;;;;-0.08;100.00;98376.22;4882398;29;20052;-79
2021/11/30 07:57:25;;;;;;;39.30;21.05;;;;;;;0.27;100.00;98371.72;4894979;29;20045;-79
2021/11/30 08:00:15;;;;;;;21.60;14.40;;;;;;;0.42;100.00;98356.16;4894842;29;20045;-79
2021/11/30 08:03:00;;;;;;;19.65;11.98;;;;;;;0.30;100.00;98362.25;4894902;29;20049;-79
2021/11/30 08:05:45;;;;;;;17.85;12.27;;;;;;;0.17;100.00;98352.91;4883057;29;20057;-79
2021/11/30 08:08:29;;;;;;;22.25;12.70;;;;;;;-0.02;100.00;98298.94;4898392;29;20041;-79
2021/11/30 08:11:13;;;;;;;22.13;12.68;;;;;;;0.30;100.00;98338.22;4898553;29;20427;-79
2021/11/30 08:13:57;;;;;;;38.30;15.90;;;;;;;0.25;100.00;98311.63;4885668;29;20072;-79
2021/11/30 08:16:43;;;;;;;23.83;12.90;;;;;;;0.09;100.00;98327.19;4885638;29;20045;-79
2021/11/30 08:19:28;;;;;;;20.98;11.98;;;;;;;0.44;100.00;98324.38;4885868;29;20052;-79
2021/11/30 08:22:14;;;;;;;20.15;12.05;;;;;;;0.41;100.00;98320.97;4885479;29;20442;-79
2021/11/30 08:24:59;;;;;;;23.55;14.20;;;;;;;0.60;100.00;98314.78;4884836;29;20104;-79
2021/11/30 08:27:43;;;;;;;23.13;13.05;;;;;;;0.45;100.00;98302.88;4898025;29;20136;-79
2021/11/30 08:30:27;;;;;;;24.45;14.10;;;;;;;0.68;100.00;98310.44;4885015;29;20048;-79
2021/11/30 08:33:12;;;;;;;21.48;14.23;;;;;;;0.28;100.00;98286.72;4900507;29;20060;-79
2021/11/30 08:35:56;;;;;;;19.52;13.10;;;;;;;0.72;100.00;98293.22;4897966;29;20045;-79
2021/11/30 08:38:41;;;;;;;16.92;11.77;;;;;;;0.70;100.00;98280.31;4885318;29;20053;-79
2021/11/30 08:41:25;;;;;;;16.35;12.75;;;;;;;0.80;100.00;98277.66;4885317;29;20045;-79
2021/11/30 08:44:09;;;;;;;16.48;10.82;;;;;;;0.74;100.00;98255.38;4897766;29;20137;-79
2021/11/30 08:46:54;;;;;;;14.77;10.63;;;;;;;0.48;100.00;98268.50;4885223;29;20052;-79
2021/11/30 08:49:39;;;;;;;14.60;10.60;;;;;;;0.70;100.00;98285.47;4884547;29;20061;-79
2021/11/30 08:52:26;;;;;;;15.52;10.07;;;;;;;0.49;100.00;98283.13;4884393;29;20048;-79
2021/11/30 08:55:12;;;;;;;18.75;11.65;;;;;;;0.36;100.00;98248.88;4884555;29;20113;-79
2021/11/30 08:57:56;;;;;;;35.28;20.85;;;;;;;0.43;100.00;98265.13;4885308;29;20053;-79
2021/11/30 09:00:40;;;;;;;22.95;14.30;;;;;;;0.47;100.00;98259.94;4884947;29;20048;-79
2021/11/30 09:03:24;;;;;;;28.05;15.85;;;;;;;0.37;100.00;98236.84;4884225;29;20057;-79
2021/11/30 09:06:09;;;;;;;67.50;31.17;;;;;;;0.51;100.00;98229.00;4885034;29;20041;-79
2021/11/30 09:08:53;;;;;;;35.97;17.85;;;;;;;0.41;100.00;98217.91;4884573;29;20064;-79
2021/11/30 09:11:38;;;;;;;37.20;18.83;;;;;;;0.74;100.00;98232.19;4884605;29;20355;-79
2021/11/30 09:14:23;;;;;;;33.33;17.00;;;;;;;0.40;100.00;98183.59;4884724;29;20041;-79
2021/11/30 09:17:08;;;;;;;55.30;26.05;;;;;;;0.67;100.00;98197.03;4895666;29;20054;-79
2021/11/30 09:19:52;;;;;;;57.08;25.20;;;;;;;0.61;100.00;98189.38;4883742;29;20363;-79
2021/11/30 09:22:37;;;;;;;42.50;21.63;;;;;;;0.44;100.00;98177.53;4896920;29;20340;-79
2021/11/30 09:25:22;;;;;;;15.63;9.70;;;;;;;0.59;100.00;98176.53;4883818;29;20045;-79
2021/11/30 09:28:06;;;;;;;17.77;10.35;;;;;;;0.54;100.00;98160.25;4884343;29;20045;-79
2021/11/30 09:30:51;;;;;;;14.38;10.30;;;;;;;0.75;100.00;98156.59;4883622;29;20052;-79
2021/11/30 09:33:38;;;;;;;13.52;9.70;;;;;;;0.70;100.00;98136.00;4896727;29;20053;-79
2021/11/30 09:36:23;;;;;;;15.55;10.18;;;;;;;0.82;100.00;98126.44;4883499;29;20101;-79
2021/11/30 09:39:07;;;;;;;13.43;8.95;;;;;;;0.81;100.00;98145.31;4884459;29;20049;-79
2021/11/30 09:41:52;;;;;;;15.20;8.32;;;;;;;0.75;100.00;98120.50;4884113;29;20057;-79
2021/11/30 09:44:36;;;;;;;16.98;10.27;;;;;;;0.73;100.00;98111.06;4884215;29;20053;-79
2021/11/30 09:47:21;;;;;;;18.40;9.38;;;;;;;0.74;100.00;98121.34;4884024;29;20045;-79
2021/11/30 09:50:09;;;;;;;9.55;6.35;;;;;;;0.67;100.00;98109.41;4883597;29;20477;-79
2021/11/30 09:52:55;;;;;;;11.23;8.02;;;;;;;0.37;100.00;98093.47;4883846;29;20052;-79
2021/11/30 09:55:41;;;;;;;13.18;8.45;;;;;;;0.38;100.00;98089.16;4883785;29;20045;-79
2021/11/30 09:58:26;;;;;;;12.10;7.85;;;;;;;0.17;100.00;98083.38;4883198;29;20057;-79
2021/11/30 10:01:11;;;;;;;9.95;6.82;;;;;;;0.22;100.00;98075.59;4896253;29;20056;-79
2021/11/30 10:03:56;;;;;;;10.48;6.70;;;;;;;0.16;100.00;98057.63;4883990;29;20507;-79
2021/11/30 10:06:40;;;;;;;8.23;6.60;;;;;;;0.09;100.00;98028.53;4884002;29;20049;-79
2021/11/30 10:09:25;;;;;;;11.05;6.88;;;;;;;0.25;100.00;98002.59;4882921;29;20518;-79
2021/11/30 10:12:12;;;;;;;11.63;8.27;;;;;;;0.33;100.00;98023.97;4883725;29;20053;-79
2021/11/30 10:15:07;;;;;;;11.50;7.05;;;;;;;0.44;100.00;98007.50;4883562;29;20163;-77
2021/11/30 10:17:52;;;;;;;12.20;7.68;;;;;;;0.42;100.00;97998.97;4883039;29;20049;-79
2021/11/30 10:20:36;;;;;;;10.65;7.53;;;;;;;0.29;100.00;97983.66;4883832;29;20061;-79
2021/11/30 10:23:24;;;;;;;28.42;15.88;;;;;;;0.34;100.00;97969.88;4883278;29;20045;-79
2021/11/30 10:26:08;;;;;;;12.68;8.45;;;;;;;0.30;100.00;97946.75;4882821;29;20123;-78
2021/11/30 10:29:13;;;;;;;18.17;9.82;;;;;;;0.39;100.00;97941.44;4882822;29;20052;-78
2021/11/30 10:31:58;;;;;;;14.05;8.98;;;;;;;0.49;100.00;97929.28;4882638;29;20049;-78
2021/11/30 10:34:42;;;;;;;16.05;10.10;;;;;;;0.43;100.00;97915.66;4883068;29;20060;-79
2021/11/30 10:37:27;;;;;;;13.70;8.77;;;;;;;0.50;100.00;97923.28;4883046;29;20430;-78
2021/11/30 10:40:15;;;;;;;18.33;9.95;;;;;;;0.52;100.00;97913.78;4882487;29;20057;-78
2021/11/30 10:43:04;;;;;;;17.50;11.65;;;;;;;0.49;100.00;97895.81;4883038;29;20434;-79
2021/11/30 10:45:48;;;;;;;12.75;8.40;;;;;;;0.35;100.00;97886.56;4895386;29;20100;-78
2021/11/30 10:48:33;;;;;;;14.23;8.45;;;;;;;0.78;100.00;97878.19;4883149;29;20049;-79
2021/11/30 10:51:18;;;;;;;12.60;8.70;;;;;;;0.60;100.00;97879.31;4883086;29;20057;-79
2021/11/30 10:54:02;;;;;;;11.05;7.88;;;;;;;0.74;100.00;97871.34;4882773;29;20061;-79
2021/11/30 10:56:59;;;;;;;12.82;7.70;;;;;;;0.62;100.00;97853.53;4880291;29;20057;-79
2021/11/30 10:59:44;;;;;;;11.43;7.38;;;;;;;0.55;100.00;97842.47;4881431;29;20121;-79
2021/11/30 11:03:03;;;;;;;11.13;7.00;;;;;;;0.73;100.00;97841.31;4881063;29;20056;-79
2021/11/30 11:09:08;;;;;;;11.38;6.22;;;;;;;0.45;100.00;97805.69;4879661;29;20060;-79
2021/11/30 11:12:02;;;;;;;16.20;7.60;;;;;;;0.53;100.00;97794.44;4892569;29;20048;-79
2021/11/30 11:14:48;;;;;;;14.13;7.45;;;;;;;0.40;100.00;97755.16;4879278;29;20049;-79
2021/11/30 11:17:33;;;;;;;13.20;7.43;;;;;;;0.58;100.00;97780.56;4880665;29;20569;-79
2021/11/30 11:20:20;;;;;;;11.45;6.97;;;;;;;0.46;100.00;97773.06;4880138;29;20045;-78
2021/11/30 11:23:05;;;;;;;8.32;6.22;;;;;;;0.60;100.00;97763.38;4880797;29;20470;-78
2021/11/30 11:25:52;;;;;;;12.90;7.95;;;;;;;0.47;100.00;97743.84;4881067;29;20053;-79
2021/11/30 11:28:37;;;;;;;10.35;6.85;;;;;;;0.60;100.00;97747.91;4881570;29;20049;-79
2021/11/30 11:31:23;;;;;;;10.68;7.15;;;;;;;0.41;100.00;97752.53;4882589;29;20049;-79
2021/11/30 11:34:09;;;;;;;8.55;6.25;;;;;;;0.29;100.00;97731.28;4894961;29;20041;-79
2021/11/30 11:36:55;;;;;;;13.30;8.60;;;;;;;-0.03;100.00;97687.19;4882296;29;20076;-79
2021/11/30 11:39:39;;;;;;;12.27;8.57;;;;;;;0.25;100.00;97703.91;4880938;29;20435;-78
2021/11/30 11:42:24;;;;;;;10.35;6.93;;;;;;;0.05;100.00;97681.06;4882217;29;20454;-78
2021/11/30 11:45:08;;;;;;;11.90;6.85;;;;;;;0.18;100.00;97698.84;4882097;29;20045;-78
2021/11/30 11:47:58;;;;;;;9.45;7.30;;;;;;;0.14;100.00;97679.19;4882375;29;20053;-79
2021/11/30 11:50:55;;;;;;;9.02;5.95;;;;;;;0.34;100.00;97676.25;4894425;29;20087;-78
2021/11/30 11:53:56;;;;;;;6.90;4.93;;;;;;;0.33;100.00;97676.28;4882281;29;20053;-78
2021/11/30 11:56:53;;;;;;;5.72;4.60;;;;;;;0.26;100.00;97667.84;4882007;29;20102;-78
2021/11/30 11:59:40;;;;;;;9.90;6.35;;;;;;;0.12;100.00;97644.03;4882122;29;20454;-78
2021/11/30 12:02:27;;;;;;;9.27;5.70;;;;;;;0.27;100.00;97650.66;4882314;29;20056;-78
2021/11/30 12:05:11;;;;;;;59.78;21.02;;;;;;;0.17;100.00;97625.06;4881841;29;20053;-79
2021/11/30 12:07:59;;;;;;;10.52;7.35;;;;;;;0.18;100.00;97621.59;4894586;29;20461;-78
2021/11/30 12:10:43;;;;;;;11.63;6.10;;;;;;;0.26;100.00;97631.78;4868305;29;20053;-79
2021/11/30 12:13:29;;;;;;;16.40;8.88;;;;;;;-0.09;100.00;97602.38;4882044;29;20049;-78
2021/11/30 12:16:14;;;;;;;12.40;6.68;;;;;;;-0.21;100.00;97596.56;4894474;29;20415;-78
2021/11/30 12:19:25;;;;;;;12.63;6.47;;;;;;;-0.14;100.00;97611.03;4882359;29;20041;-79
2021/11/30 12:22:36;;;;;;;11.10;6.35;;;;;;;-0.19;100.00;97592.25;4883078;29;20037;-82
2021/11/30 12:25:47;;;;;;;8.80;5.80;;;;;;;-0.28;100.00;97588.13;4876798;29;20060;-83
2021/11/30 12:28:38;;;;;;;11.60;7.05;;;;;;;-0.72;100.00;97525.38;4903194;29;20025;-83
2021/11/30 12:31:32;;;;;;;14.55;7.22;;;;;;;-0.87;100.00;97516.22;4902804;29;20067;-83
2021/11/30 12:34:48;;;;;;;13.73;7.18;;;;;;;-0.84;100.00;97495.59;5005984;23;20019;-82
2021/11/30 12:37:47;;;;;;;11.60;6.70;;;;;;;-0.59;100.00;97518.31;4880505;29;20104;-83
2021/11/30 12:40:39;;;;;;;10.48;6.72;;;;;;;-0.64;100.00;97517.56;4921463;29;20052;-83
2021/11/30 12:43:56;;;;;;;9.25;6.07;;;;;;;-0.65;100.00;97509.00;4909254;29;20032;-82
2021/11/30 12:47:01;;;;;;;7.93;5.63;;;;;;;-0.40;100.00;97530.00;4907846;29;20037;-84
2021/11/30 12:49:46;;;;;;;7.80;4.68;;;;;;;-0.69;100.00;97491.06;4901404;29;20060;-79
2021/11/30 12:52:39;;;;;;;8.02;5.25;;;;;;;-0.42;100.00;97512.88;4901980;29;20465;-78
2021/11/30 12:55:24;;;;;;;8.07;5.47;;;;;;;-0.34;100.00;97505.91;4903781;29;20060;-78
2021/11/30 12:58:08;;;;;;;9.77;6.55;;;;;;;-0.37;100.00;97498.22;4903455;29;20139;-79
2021/11/30 13:01:19;;;;;;;8.02;5.18;;;;;;;-0.41;100.00;97497.44;4902952;29;20064;-78
2021/11/30 13:04:32;;;;;;;7.38;3.97;;;;;;;-0.41;100.00;97486.31;4903435;29;20044;-79